Terminal Aerodrome Forecast
Issued by NWS Omaha/Valley, NE

Home | Current Version | Previous Version | Text Only | Print | Product List | Glossary On
Versions: 1 2 3 4 5 6 7 8 9 10 11 12 13 14 15 16 17 18 19 20 21 22 23
000
FTUS43 KOAX 262320
TAFOFK
TAF
KOFK 262320Z 2700/2724 33014G20KT P6SM OVC025
     FM270100 33010KT P6SM BKN035
     FM270400 34006KT P6SM FEW035 SCT090
     FM272200 01005KT P6SM SCT080 BKN130=

USA.gov is the U.S. government's official web portal to all federal, state and local government web resources and services.